createdAt,value
2023-01-10T00:00:09.786Z,5.49
2023-01-10T00:00:23.057Z,5.49
2023-01-10T00:00:33.848Z,5.49
2023-01-10T00:00:44.711Z,5.49
2023-01-10T00:00:55.509Z,5.49
2023-01-10T00:01:06.310Z,5.50
2023-01-10T00:01:17.079Z,5.49
2023-01-10T00:01:30.295Z,5.49
2023-01-10T00:01:42.503Z,5.49
2023-01-10T00:01:53.253Z,5.48
2023-01-10T00:02:03.995Z,5.48
2023-01-10T00:02:16.270Z,5.49
2023-01-10T00:02:27.060Z,5.48
2023-01-10T00:02:39.301Z,5.48
2023-01-10T00:02:51.001Z,5.48
2023-01-10T00:03:02.750Z,5.48
2023-01-10T00:03:13.471Z,5.48
2023-01-10T00:03:25.216Z,5.46
2023-01-10T00:03:36.036Z,5.49
2023-01-10T00:03:46.804Z,5.48
2023-01-10T00:03:57.554Z,5.48
2023-01-10T00:04:10.042Z,5.48
2023-01-10T00:04:21.797Z,5.48
2023-01-10T00:04:32.660Z,5.46
2023-01-10T00:04:45.682Z,5.48
2023-01-10T00:04:56.495Z,5.49
2023-01-10T00:05:07.262Z,5.48
2023-01-10T00:05:18.972Z,5.48
2023-01-10T00:05:32.193Z,5.48
2023-01-10T00:05:42.953Z,5.48
2023-01-10T00:05:53.695Z,5.50
2023-01-10T00:06:05.400Z,5.50
2023-01-10T00:06:17.105Z,5.49
2023-01-10T00:06:27.909Z,5.50
2023-01-10T00:06:39.661Z,5.52
2023-01-10T00:06:50.393Z,5.50
2023-01-10T00:07:01.125Z,5.50
2023-01-10T00:07:13.828Z,5.52
2023-01-10T00:07:24.591Z,5.52
2023-01-10T00:07:35.592Z,5.53
2023-01-10T00:07:50.302Z,5.52
2023-01-10T00:08:02.740Z,5.53
2023-01-10T00:08:13.473Z,5.53
2023-01-10T00:08:25.217Z,5.55
2023-01-10T00:08:35.992Z,5.53
2023-01-10T00:08:49.721Z,5.52
2023-01-10T00:09:02.163Z,5.53
2023-01-10T00:09:14.010Z,5.53
2023-01-10T00:09:24.802Z,5.53
2023-01-10T00:09:35.582Z,5.53
2023-01-10T00:09:46.375Z,5.53
2023-01-10T00:09:58.835Z,5.53
2023-01-10T00:10:09.603Z,5.52
2023-01-10T00:10:20.342Z,5.53
2023-01-10T00:10:31.093Z,5.53
2023-01-10T00:10:41.861Z,5.53
2023-01-10T00:10:52.602Z,5.52
2023-01-10T00:11:04.326Z,5.53
2023-01-10T00:11:17.031Z,5.53
2023-01-10T00:11:27.803Z,5.52
2023-01-10T00:11:38.593Z,5.52
2023-01-10T00:11:51.093Z,5.52
2023-01-10T00:12:01.846Z,5.53
2023-01-10T00:12:12.601Z,5.53
2023-01-10T00:12:23.340Z,5.50
2023-01-10T00:12:35.535Z,5.53
2023-01-10T00:12:46.323Z,5.52
2023-01-10T00:12:58.043Z,5.53
2023-01-10T00:13:08.851Z,5.53
2023-01-10T00:13:20.575Z,5.55
2023-01-10T00:13:32.295Z,5.56
2023-01-10T00:13:43.063Z,5.55
2023-01-10T00:13:53.823Z,5.56
2023-01-10T00:14:06.069Z,5.56
2023-01-10T00:14:16.815Z,5.56
2023-01-10T00:14:27.642Z,5.56
2023-01-10T00:14:38.437Z,5.56
2023-01-10T00:14:49.255Z,5.59
2023-01-10T00:15:01.004Z,5.57
2023-01-10T00:15:12.745Z,5.57
2023-01-10T00:15:25.173Z,5.59
2023-01-10T00:15:36.921Z,5.57
2023-01-10T00:15:47.778Z,5.57
2023-01-10T00:15:58.591Z,5.57
2023-01-10T00:16:09.353Z,5.57
2023-01-10T00:16:20.199Z,5.57
2023-01-10T00:16:31.054Z,5.59
2023-01-10T00:16:42.810Z,5.59
2023-01-10T00:16:54.984Z,5.57
2023-01-10T00:17:05.754Z,5.57
2023-01-10T00:17:16.514Z,5.59
2023-01-10T00:17:27.272Z,5.57
2023-01-10T00:17:38.007Z,5.56
2023-01-10T00:17:48.762Z,5.57
2023-01-10T00:17:59.519Z,5.57
2023-01-10T00:18:11.274Z,5.56
2023-01-10T00:18:23.053Z,5.57
2023-01-10T00:18:33.804Z,5.56
2023-01-10T00:18:45.505Z,5.56
2023-01-10T00:18:56.257Z,5.55
2023-01-10T00:19:09.465Z,5.55
2023-01-10T00:19:21.960Z,5.55
2023-01-10T00:19:32.730Z,5.55
2023-01-10T00:19:43.481Z,5.53
2023-01-10T00:19:55.292Z,5.55
2023-01-10T00:20:07.765Z,5.53
2023-01-10T00:20:18.524Z,5.53
2023-01-10T00:20:30.991Z,5.53
2023-01-10T00:20:41.775Z,5.53
2023-01-10T00:20:52.509Z,5.53
2023-01-10T00:21:04.245Z,5.53
2023-01-10T00:21:15.952Z,5.52
2023-01-10T00:21:26.735Z,5.55
2023-01-10T00:21:37.513Z,5.53
2023-01-10T00:21:49.235Z,5.55
2023-01-10T00:22:00.015Z,5.53
2023-01-10T00:22:12.482Z,5.55
2023-01-10T00:22:23.235Z,5.53
2023-01-10T00:22:35.177Z,5.55
2023-01-10T00:22:48.387Z,5.55
2023-01-10T00:22:59.105Z,5.53
2023-01-10T00:23:09.908Z,5.53
2023-01-10T00:23:22.615Z,5.55
2023-01-10T00:23:34.400Z,5.55
2023-01-10T00:23:46.126Z,5.53
2023-01-10T00:23:56.874Z,5.53
2023-01-10T00:24:10.075Z,5.53
2023-01-10T00:24:20.800Z,5.53
2023-01-10T00:24:32.565Z,5.53
2023-01-10T00:24:44.304Z,5.53
2023-01-10T00:24:55.080Z,5.52
2023-01-10T00:25:05.857Z,5.53
2023-01-10T00:25:16.616Z,5.53
2023-01-10T00:25:27.368Z,5.53
2023-01-10T00:25:38.183Z,5.53
2023-01-10T00:25:48.929Z,5.52
2023-01-10T00:26:00.634Z,5.52
2023-01-10T00:26:11.408Z,5.52
2023-01-10T00:26:22.168Z,5.53
2023-01-10T00:26:33.907Z,5.52
2023-01-10T00:26:44.677Z,5.50
2023-01-10T00:26:56.439Z,5.52
2023-01-10T00:27:07.217Z,5.52
2023-01-10T00:27:17.966Z,5.52
2023-01-10T00:27:30.905Z,5.50
2023-01-10T00:27:42.635Z,5.52
2023-01-10T00:27:54.610Z,5.52
2023-01-10T00:28:05.345Z,5.53
2023-01-10T00:28:17.778Z,5.52
2023-01-10T00:28:30.977Z,5.52
2023-01-10T00:28:41.759Z,5.52
2023-01-10T00:28:54.475Z,5.53
2023-01-10T00:29:06.208Z,5.53
2023-01-10T00:29:17.918Z,5.53
2023-01-10T00:29:29.637Z,5.53
2023-01-10T00:29:40.395Z,5.52
2023-01-10T00:29:51.419Z,5.52
2023-01-10T00:30:03.856Z,5.52
2023-01-10T00:30:16.098Z,5.50
2023-01-10T00:30:28.095Z,5.52
2023-01-10T00:30:38.901Z,5.50
2023-01-10T00:30:49.957Z,5.50
2023-01-10T00:31:01.897Z,5.50
2023-01-10T00:31:12.703Z,5.50
2023-01-10T00:31:23.459Z,5.50
2023-01-10T00:31:34.213Z,5.50
2023-01-10T00:31:44.938Z,5.50
2023-01-10T00:31:55.758Z,5.50
2023-01-10T00:32:06.542Z,5.52
2023-01-10T00:32:18.286Z,5.52
2023-01-10T00:32:31.064Z,5.52
2023-01-10T00:32:42.782Z,5.52
2023-01-10T00:32:54.507Z,5.53
2023-01-10T00:33:05.247Z,5.52
2023-01-10T00:33:17.691Z,5.52
2023-01-10T00:33:28.440Z,5.52
2023-01-10T00:33:40.190Z,5.52
2023-01-10T00:33:53.109Z,5.52
2023-01-10T00:34:03.849Z,5.52
2023-01-10T00:34:14.613Z,5.52
2023-01-10T00:34:27.056Z,5.52
2023-01-10T00:34:37.840Z,5.52
2023-01-10T00:34:48.593Z,5.50
2023-01-10T00:35:01.052Z,5.50
2023-01-10T00:35:11.789Z,5.52
2023-01-10T00:35:23.543Z,5.50
2023-01-10T00:35:35.988Z,5.50
2023-01-10T00:35:46.738Z,5.50
2023-01-10T00:35:58.463Z,5.49
2023-01-10T00:36:10.197Z,5.49
2023-01-10T00:36:20.930Z,5.50
2023-01-10T00:36:33.401Z,5.50
2023-01-10T00:36:45.234Z,5.50
2023-01-10T00:36:56.049Z,5.49
2023-01-10T00:37:06.837Z,5.49
2023-01-10T00:37:17.575Z,5.49
2023-01-10T00:37:28.361Z,5.49
2023-01-10T00:37:39.127Z,5.49
2023-01-10T00:37:49.908Z,5.49
2023-01-10T00:38:00.649Z,5.50
2023-01-10T00:38:12.350Z,5.49
2023-01-10T00:38:23.118Z,5.48
2023-01-10T00:38:33.860Z,5.48
2023-01-10T00:38:48.830Z,5.48
2023-01-10T00:38:59.560Z,5.49
2023-01-10T00:39:10.302Z,5.49
2023-01-10T00:39:21.106Z,5.48
2023-01-10T00:39:31.834Z,5.48
2023-01-10T00:39:42.567Z,5.48
2023-01-10T00:39:54.998Z,5.46
2023-01-10T00:40:05.758Z,5.48
2023-01-10T00:40:18.961Z,5.46
2023-01-10T00:40:29.732Z,5.46
2023-01-10T00:40:41.438Z,5.46
2023-01-10T00:40:53.915Z,5.48
2023-01-10T00:41:04.778Z,5.48
2023-01-10T00:41:15.539Z,5.46
2023-01-10T00:41:26.311Z,5.46
2023-01-10T00:41:37.039Z,5.46
2023-01-10T00:41:47.780Z,5.48
2023-01-10T00:41:59.461Z,5.46
2023-01-10T00:42:10.187Z,5.46
2023-01-10T00:42:21.853Z,5.48
2023-01-10T00:42:34.318Z,5.45
2023-01-10T00:42:45.070Z,5.46
2023-01-10T00:42:57.522Z,5.48
2023-01-10T00:43:08.560Z,5.46
2023-01-10T00:43:19.367Z,5.46
2023-01-10T00:43:30.143Z,5.48
2023-01-10T00:43:41.877Z,5.46
2023-01-10T00:43:54.101Z,5.48
2023-01-10T00:44:05.820Z,5.48
2023-01-10T00:44:17.535Z,5.48
2023-01-10T00:44:28.285Z,5.48
2023-01-10T00:44:39.004Z,5.48
2023-01-10T00:44:49.750Z,5.49
2023-01-10T00:45:00.531Z,5.49
2023-01-10T00:45:13.880Z,5.49
2023-01-10T00:45:25.620Z,5.49
2023-01-10T00:45:36.385Z,5.49
2023-01-10T00:45:47.132Z,5.49
2023-01-10T00:45:57.978Z,5.49
2023-01-10T00:46:09.050Z,5.49
2023-01-10T00:46:19.868Z,5.49
2023-01-10T00:46:30.695Z,5.48
2023-01-10T00:46:41.471Z,5.48
2023-01-10T00:46:52.230Z,5.49
2023-01-10T00:47:03.022Z,5.49
2023-01-10T00:47:13.816Z,5.49
2023-01-10T00:47:26.268Z,5.49
2023-01-10T00:47:37.005Z,5.49
2023-01-10T00:47:49.465Z,5.49
2023-01-10T00:48:00.236Z,5.48
2023-01-10T00:48:10.961Z,5.48
2023-01-10T00:48:21.713Z,5.49
2023-01-10T00:48:33.442Z,5.49
2023-01-10T00:48:44.177Z,5.49
2023-01-10T00:48:54.957Z,5.49
2023-01-10T00:49:06.681Z,5.49
2023-01-10T00:49:18.400Z,5.49
2023-01-10T00:49:29.147Z,5.50
2023-01-10T00:49:41.582Z,5.49
2023-01-10T00:49:52.382Z,5.50
2023-01-10T00:50:03.165Z,5.50
2023-01-10T00:50:16.111Z,5.50
2023-01-10T00:50:27.835Z,5.50
2023-01-10T00:50:38.581Z,5.52
2023-01-10T00:50:49.311Z,5.52
2023-01-10T00:51:00.095Z,5.52
2023-01-10T00:51:11.783Z,5.50
2023-01-10T00:51:22.619Z,5.52
2023-01-10T00:51:35.884Z,5.50
2023-01-10T00:51:48.345Z,5.52
2023-01-10T00:52:00.752Z,5.53
2023-01-10T00:52:11.497Z,5.53
2023-01-10T00:52:22.254Z,5.53
2023-01-10T00:52:33.963Z,5.53
2023-01-10T00:52:44.702Z,5.55
2023-01-10T00:52:55.492Z,5.55
2023-01-10T00:53:08.093Z,5.53
2023-01-10T00:53:19.803Z,5.55
2023-01-10T00:53:33.029Z,5.52
2023-01-10T00:53:45.463Z,5.55
2023-01-10T00:53:56.214Z,5.52
2023-01-10T00:54:07.911Z,5.55
2023-01-10T00:54:20.341Z,5.53
2023-01-10T00:54:32.283Z,5.53
2023-01-10T00:54:44.021Z,5.53
2023-01-10T00:54:55.721Z,5.55
2023-01-10T00:55:08.154Z,5.55
2023-01-10T00:55:20.756Z,5.55
2023-01-10T00:55:32.502Z,5.55
2023-01-10T00:55:43.295Z,5.56
2023-01-10T00:55:55.057Z,5.55
2023-01-10T00:56:05.787Z,5.55
2023-01-10T00:56:16.557Z,5.55
2023-01-10T00:56:28.321Z,5.55
2023-01-10T00:56:39.064Z,5.55
2023-01-10T00:56:49.827Z,5.53
2023-01-10T00:57:00.596Z,5.55
2023-01-10T00:57:12.373Z,5.55
2023-01-10T00:57:23.155Z,5.55
2023-01-10T00:57:33.922Z,5.55
2023-01-10T00:57:44.688Z,5.56
2023-01-10T00:57:56.475Z,5.55
2023-01-10T00:58:07.275Z,5.56
2023-01-10T00:58:18.993Z,5.56
2023-01-10T00:58:29.799Z,5.56
2023-01-10T00:58:40.593Z,5.55
2023-01-10T00:58:51.377Z,5.56
2023-01-10T00:59:02.118Z,5.55
2023-01-10T00:59:12.904Z,5.56
2023-01-10T00:59:26.124Z,5.55
2023-01-10T00:59:38.582Z,5.55
2023-01-10T00:59:50.316Z,5.55
2023-01-10T01:00:01.100Z,5.55
2023-01-10T01:00:13.585Z,5.56
2023-01-10T01:00:26.108Z,5.56
2023-01-10T01:00:37.814Z,5.55
2023-01-10T01:00:48.627Z,5.53
2023-01-10T01:00:59.401Z,5.55
2023-01-10T01:01:10.256Z,5.53
2023-01-10T01:01:22.073Z,5.55
2023-01-10T01:01:34.009Z,5.55
2023-01-10T01:01:45.904Z,5.55
2023-01-10T01:01:56.793Z,5.55
2023-01-10T01:02:08.565Z,5.55
2023-01-10T01:02:19.510Z,5.53
2023-01-10T01:02:30.364Z,5.55
2023-01-10T01:02:41.135Z,5.55
2023-01-10T01:02:52.981Z,5.56
2023-01-10T01:03:05.529Z,5.56
2023-01-10T01:03:17.533Z,5.56
2023-01-10T01:03:29.269Z,5.56
2023-01-10T01:03:41.045Z,5.57
2023-01-10T01:03:52.845Z,5.57
2023-01-10T01:04:03.647Z,5.56
2023-01-10T01:04:16.665Z,5.57
2023-01-10T01:04:28.415Z,5.56
2023-01-10T01:04:39.175Z,5.56
2023-01-10T01:04:49.978Z,5.56
2023-01-10T01:05:01.721Z,5.56
2023-01-10T01:05:14.198Z,5.56
2023-01-10T01:05:24.969Z,5.56
2023-01-10T01:05:35.783Z,5.55
2023-01-10T01:05:48.215Z,5.57
2023-01-10T01:05:58.990Z,5.56
2023-01-10T01:06:09.761Z,5.57
2023-01-10T01:06:22.196Z,5.57
2023-01-10T01:06:33.896Z,5.57
2023-01-10T01:06:44.717Z,5.57
2023-01-10T01:06:55.459Z,5.57
2023-01-10T01:07:06.240Z,5.57
2023-01-10T01:07:18.004Z,5.59
2023-01-10T01:07:30.451Z,5.60
2023-01-10T01:07:41.217Z,5.60
2023-01-10T01:07:51.984Z,5.59
2023-01-10T01:08:02.758Z,5.60
2023-01-10T01:08:15.473Z,5.63
2023-01-10T01:08:27.230Z,5.64
2023-01-10T01:08:39.669Z,5.63
2023-01-10T01:08:50.457Z,5.63
2023-01-10T01:09:02.867Z,5.63
2023-01-10T01:09:13.608Z,5.63
2023-01-10T01:09:24.396Z,5.60
2023-01-10T01:09:35.136Z,5.63
2023-01-10T01:09:45.868Z,5.60
2023-01-10T01:09:58.811Z,5.60
2023-01-10T01:10:09.587Z,5.60
2023-01-10T01:10:20.379Z,5.60
2023-01-10T01:10:31.228Z,5.60
2023-01-10T01:10:41.971Z,5.60
2023-01-10T01:10:54.459Z,5.60
2023-01-10T01:11:05.239Z,5.59
2023-01-10T01:11:16.037Z,5.59
2023-01-10T01:11:26.787Z,5.59
2023-01-10T01:11:39.476Z,5.59
2023-01-10T01:11:50.254Z,5.59
2023-01-10T01:12:02.047Z,5.59
2023-01-10T01:12:12.859Z,5.59
2023-01-10T01:12:23.628Z,5.59
2023-01-10T01:12:35.374Z,5.59
2023-01-10T01:12:46.150Z,5.57
2023-01-10T01:12:56.938Z,5.59
2023-01-10T01:13:08.698Z,5.57
2023-01-10T01:13:19.477Z,5.59
2023-01-10T01:13:30.217Z,5.59
2023-01-10T01:13:41.008Z,5.57
2023-01-10T01:13:51.802Z,5.59
2023-01-10T01:14:02.588Z,5.59
2023-01-10T01:14:14.374Z,5.57
2023-01-10T01:14:25.181Z,5.57
2023-01-10T01:14:36.962Z,5.59
2023-01-10T01:14:47.678Z,5.60
2023-01-10T01:14:58.447Z,5.60
2023-01-10T01:15:10.185Z,5.60
2023-01-10T01:15:20.988Z,5.60
2023-01-10T01:15:31.830Z,5.60
2023-01-10T01:15:42.675Z,5.63
2023-01-10T01:15:53.487Z,5.63
2023-01-10T01:16:04.376Z,5.63
2023-01-10T01:16:15.293Z,5.64
2023-01-10T01:16:26.058Z,5.63
2023-01-10T01:16:36.847Z,5.63
2023-01-10T01:16:47.638Z,5.63
2023-01-10T01:16:58.377Z,5.60
2023-01-10T01:17:10.126Z,5.63
2023-01-10T01:17:21.848Z,5.63
2023-01-10T01:17:32.580Z,5.60
2023-01-10T01:17:43.326Z,5.63
2023-01-10T01:17:54.058Z,5.63
2023-01-10T01:18:04.839Z,5.63
2023-01-10T01:18:15.569Z,5.60
2023-01-10T01:18:26.329Z,5.63
2023-01-10T01:18:38.058Z,5.60
2023-01-10T01:18:48.828Z,5.63
2023-01-10T01:18:59.658Z,5.60
2023-01-10T01:19:10.460Z,5.60
2023-01-10T01:19:23.485Z,5.63
2023-01-10T01:19:34.289Z,5.60
2023-01-10T01:19:46.710Z,5.60
2023-01-10T01:19:57.469Z,5.59
2023-01-10T01:20:09.912Z,5.59
2023-01-10T01:20:20.709Z,5.59
2023-01-10T01:20:31.550Z,5.59
2023-01-10T01:20:42.340Z,5.59
2023-01-10T01:20:54.556Z,5.59
2023-01-10T01:21:07.027Z,5.60
2023-01-10T01:21:18.781Z,5.63
2023-01-10T01:21:29.582Z,5.60
2023-01-10T01:21:41.304Z,5.60
2023-01-10T01:21:53.069Z,5.63
2023-01-10T01:22:04.833Z,5.60
2023-01-10T01:22:18.325Z,5.60
2023-01-10T01:22:29.143Z,5.63
2023-01-10T01:22:40.856Z,5.63
2023-01-10T01:22:51.647Z,5.63
2023-01-10T01:23:02.408Z,5.64
2023-01-10T01:23:13.188Z,5.63
2023-01-10T01:23:23.999Z,5.64
2023-01-10T01:23:36.470Z,5.66
2023-01-10T01:23:48.251Z,5.66
2023-01-10T01:24:00.735Z,5.64
2023-01-10T01:24:11.458Z,5.66
2023-01-10T01:24:23.920Z,5.66
2023-01-10T01:24:35.696Z,5.66
2023-01-10T01:24:48.662Z,5.66
2023-01-10T01:24:59.699Z,5.64
2023-01-10T01:25:10.536Z,5.64
2023-01-10T01:25:23.992Z,5.66
2023-01-10T01:25:35.734Z,5.66
2023-01-10T01:25:47.961Z,5.64
2023-01-10T01:25:59.700Z,5.64
2023-01-10T01:26:11.952Z,5.64
2023-01-10T01:26:25.189Z,5.66
2023-01-10T01:26:35.939Z,5.66
2023-01-10T01:26:47.662Z,5.66
2023-01-10T01:26:59.390Z,5.66
2023-01-10T01:27:11.831Z,5.66
2023-01-10T01:27:22.630Z,5.64
2023-01-10T01:27:34.347Z,5.64
2023-01-10T01:27:45.118Z,5.66
2023-01-10T01:27:55.901Z,5.66
2023-01-10T01:28:07.629Z,5.66
2023-01-10T01:28:19.358Z,5.66
2023-01-10T01:28:30.156Z,5.66
2023-01-10T01:28:41.987Z,5.66
2023-01-10T01:28:53.760Z,5.64
2023-01-10T01:29:05.471Z,5.64
2023-01-10T01:29:18.005Z,5.64
2023-01-10T01:29:42.249Z,5.64
2023-01-10T01:29:45.430Z,5.66
2023-01-10T01:29:56.251Z,5.66
2023-01-10T01:30:09.303Z,5.64
2023-01-10T01:30:21.120Z,5.64
2023-01-10T01:30:31.878Z,5.66
2023-01-10T01:30:42.651Z,5.66
2023-01-10T01:30:53.518Z,5.66
2023-01-10T01:31:04.397Z,5.66
2023-01-10T01:31:16.346Z,5.66
2023-01-10T01:31:27.322Z,5.66
2023-01-10T01:31:39.210Z,5.64
2023-01-10T01:31:51.395Z,5.64
2023-01-10T01:32:03.360Z,5.66
2023-01-10T01:32:14.305Z,5.66
2023-01-10T01:32:26.741Z,5.66
2023-01-10T01:32:37.760Z,5.64
2023-01-10T01:32:49.576Z,5.64
2023-01-10T01:33:00.640Z,5.67
2023-01-10T01:33:11.432Z,5.64
2023-01-10T01:33:22.328Z,5.66
2023-01-10T01:33:33.096Z,5.66
2023-01-10T01:33:45.584Z,5.66
2023-01-10T01:33:59.320Z,5.66
2023-01-10T01:34:10.102Z,5.66
2023-01-10T01:34:22.640Z,5.64
2023-01-10T01:34:33.423Z,5.64
2023-01-10T01:34:45.881Z,5.64
2023-01-10T01:34:56.880Z,5.66
2023-01-10T01:35:08.601Z,5.66
2023-01-10T01:35:19.414Z,5.64
2023-01-10T01:35:30.237Z,5.66
2023-01-10T01:35:40.995Z,5.64
2023-01-10T01:35:51.766Z,5.64
2023-01-10T01:36:02.532Z,5.64
2023-01-10T01:36:13.273Z,5.64
2023-01-10T01:36:24.024Z,5.64
2023-01-10T01:36:35.730Z,5.64
2023-01-10T01:36:48.184Z,5.64
2023-01-10T01:36:58.964Z,5.64
2023-01-10T01:37:11.180Z,5.64
2023-01-10T01:37:21.953Z,5.66
2023-01-10T01:37:34.462Z,5.64
2023-01-10T01:37:45.264Z,5.66
2023-01-10T01:37:55.984Z,5.66
2023-01-10T01:38:06.742Z,5.63
2023-01-10T01:38:17.534Z,5.64
2023-01-10T01:38:29.232Z,5.64
2023-01-10T01:38:40.981Z,5.64
2023-01-10T01:38:51.765Z,5.64
2023-01-10T01:39:02.553Z,5.63
2023-01-10T01:39:13.291Z,5.64
2023-01-10T01:39:24.052Z,5.64
2023-01-10T01:39:34.864Z,5.64
2023-01-10T01:39:45.651Z,5.64
2023-01-10T01:39:56.424Z,5.64
2023-01-10T01:40:07.173Z,5.64
2023-01-10T01:40:19.670Z,5.64
2023-01-10T01:40:30.439Z,5.64
2023-01-10T01:40:41.244Z,5.64
2023-01-10T01:40:53.683Z,5.64
2023-01-10T01:41:04.485Z,5.64
2023-01-10T01:41:16.950Z,5.64
2023-01-10T01:41:29.364Z,5.64
2023-01-10T01:41:41.092Z,5.64
2023-01-10T01:41:53.523Z,5.64
2023-01-10T01:42:05.264Z,5.64
2023-01-10T01:42:16.003Z,5.66
2023-01-10T01:42:28.479Z,5.66
2023-01-10T01:42:40.184Z,5.66
2023-01-10T01:42:52.914Z,5.64
2023-01-10T01:43:04.732Z,5.64
2023-01-10T01:43:17.180Z,5.64
2023-01-10T01:43:29.593Z,5.64
2023-01-10T01:43:40.391Z,5.64
2023-01-10T01:43:51.143Z,5.64
2023-01-10T01:44:01.936Z,5.64
2023-01-10T01:44:13.646Z,5.66
2023-01-10T01:44:25.405Z,5.63
2023-01-10T01:44:36.209Z,5.64
2023-01-10T01:44:46.985Z,5.64
2023-01-10T01:44:59.223Z,5.64
2023-01-10T01:45:11.185Z,5.66
2023-01-10T01:45:21.963Z,5.64
2023-01-10T01:45:34.213Z,5.66
2023-01-10T01:45:47.404Z,5.64
2023-01-10T01:46:01.705Z,5.64
2023-01-10T01:46:12.477Z,5.64
2023-01-10T01:46:24.270Z,5.66
2023-01-10T01:46:35.120Z,5.64
2023-01-10T01:46:45.965Z,5.66
2023-01-10T01:46:57.702Z,5.64
2023-01-10T01:47:10.197Z,5.64
2023-01-10T01:47:22.678Z,5.66
2023-01-10T01:47:33.434Z,5.64
2023-01-10T01:47:44.219Z,5.64
2023-01-10T01:47:55.007Z,5.63
2023-01-10T01:48:05.797Z,5.64
2023-01-10T01:48:17.564Z,5.66
2023-01-10T01:48:28.396Z,5.64
2023-01-10T01:48:40.126Z,5.64
2023-01-10T01:48:50.874Z,5.64
2023-01-10T01:49:01.744Z,5.64
2023-01-10T01:49:13.494Z,5.64
2023-01-10T01:49:25.735Z,5.64
2023-01-10T01:49:36.475Z,5.66
2023-01-10T01:49:48.179Z,5.66
2023-01-10T01:50:00.640Z,5.66
2023-01-10T01:50:11.425Z,5.66
2023-01-10T01:50:23.136Z,5.64
2023-01-10T01:50:33.899Z,5.63
2023-01-10T01:50:44.635Z,5.66
2023-01-10T01:50:55.407Z,5.64
2023-01-10T01:51:06.164Z,5.64
2023-01-10T01:51:19.151Z,5.64
2023-01-10T01:51:29.912Z,5.63
2023-01-10T01:51:40.656Z,5.64
2023-01-10T01:51:51.394Z,5.63
2023-01-10T01:52:02.155Z,5.63
2023-01-10T01:52:14.607Z,5.60
2023-01-10T01:52:27.088Z,5.60
2023-01-10T01:52:37.875Z,5.60
2023-01-10T01:52:48.611Z,5.59
2023-01-10T01:52:59.375Z,5.59
2023-01-10T01:53:10.153Z,5.57
2023-01-10T01:53:21.888Z,5.56
2023-01-10T01:53:34.357Z,5.56
2023-01-10T01:53:46.110Z,5.55
2023-01-10T01:53:59.041Z,5.55
2023-01-10T01:54:09.775Z,5.55
2023-01-10T01:54:20.533Z,5.53
2023-01-10T01:54:32.945Z,5.53
2023-01-10T01:54:44.665Z,5.53
2023-01-10T01:54:55.464Z,5.52
2023-01-10T01:55:07.722Z,5.52
2023-01-10T01:55:20.283Z,5.50
2023-01-10T01:55:32.755Z,5.52
2023-01-10T01:55:44.475Z,5.50
2023-01-10T01:55:56.183Z,5.49
2023-01-10T01:56:07.956Z,5.49
2023-01-10T01:56:18.730Z,5.49
2023-01-10T01:56:30.450Z,5.49
2023-01-10T01:56:41.294Z,5.49
2023-01-10T01:56:52.038Z,5.46
2023-01-10T01:57:02.819Z,5.48
2023-01-10T01:57:14.538Z,5.46
2023-01-10T01:57:25.304Z,5.46
2023-01-10T01:57:36.086Z,5.43
2023-01-10T01:57:47.829Z,5.45
2023-01-10T01:57:58.627Z,5.43
2023-01-10T01:58:09.376Z,5.43
2023-01-10T01:58:22.595Z,5.41
2023-01-10T01:58:33.398Z,5.43
2023-01-10T01:58:45.132Z,5.43
2023-01-10T01:58:55.892Z,5.41
2023-01-10T01:59:06.649Z,5.41
2023-01-10T01:59:17.451Z,5.41
2023-01-10T01:59:29.907Z,5.41
2023-01-10T01:59:42.328Z,5.41
2023-01-10T01:59:53.059Z,5.40
2023-01-10T02:00:04.856Z,5.40
2023-01-10T02:00:15.624Z,5.40
2023-01-10T02:00:27.418Z,5.38
2023-01-10T02:00:38.168Z,5.40
2023-01-10T02:00:48.950Z,5.38
2023-01-10T02:00:59.827Z,5.38
2023-01-10T02:01:10.680Z,5.38
2023-01-10T02:01:21.589Z,5.38
2023-01-10T02:01:33.477Z,5.38
2023-01-10T02:01:44.429Z,5.38
2023-01-10T02:01:57.192Z,5.37
2023-01-10T02:02:07.977Z,5.38
2023-01-10T02:02:19.898Z,5.35
2023-01-10T02:02:32.296Z,5.37
2023-01-10T02:02:54.136Z,5.35
2023-01-10T02:03:02.897Z,5.37
2023-01-10T02:03:14.022Z,5.35
2023-01-10T02:03:26.468Z,5.35
2023-01-10T02:03:37.264Z,5.35
2023-01-10T02:03:49.059Z,5.35
2023-01-10T02:04:01.259Z,5.35
2023-01-10T02:04:13.587Z,5.34
2023-01-10T02:04:24.390Z,5.32
2023-01-10T02:04:36.128Z,5.32
2023-01-10T02:04:46.901Z,5.32
2023-01-10T02:04:57.657Z,5.32
2023-01-10T02:05:09.637Z,5.31
2023-01-10T02:05:20.703Z,5.31
2023-01-10T02:05:32.953Z,5.32
2023-01-10T02:05:46.099Z,5.30
2023-01-10T02:05:56.853Z,5.30
2023-01-10T02:06:07.660Z,5.31
2023-01-10T02:06:18.444Z,5.28
2023-01-10T02:06:30.210Z,5.28
2023-01-10T02:06:42.679Z,5.30
2023-01-10T02:06:53.417Z,5.28
2023-01-10T02:07:05.655Z,5.30
2023-01-10T02:07:16.519Z,5.28
2023-01-10T02:07:27.347Z,5.28
2023-01-10T02:07:38.118Z,5.27
2023-01-10T02:07:50.582Z,5.28
2023-01-10T02:08:01.370Z,5.28
2023-01-10T02:08:12.131Z,5.27
2023-01-10T02:08:23.869Z,5.27
2023-01-10T02:08:34.668Z,5.25
2023-01-10T02:08:45.490Z,5.25
2023-01-10T02:08:56.271Z,5.25
2023-01-10T02:09:07.117Z,5.23
2023-01-10T02:09:17.891Z,5.25
2023-01-10T02:09:28.635Z,5.27
2023-01-10T02:09:41.046Z,5.23
2023-01-10T02:09:51.810Z,5.25
2023-01-10T02:10:06.048Z,5.25
2023-01-10T02:10:16.800Z,5.25
2023-01-10T02:10:27.613Z,5.25
2023-01-10T02:10:39.329Z,5.23
2023-01-10T02:10:51.060Z,5.25
2023-01-10T02:11:03.550Z,5.25
2023-01-10T02:11:14.298Z,5.23
2023-01-10T02:11:25.983Z,5.22
2023-01-10T02:11:38.454Z,5.23
2023-01-10T02:11:49.482Z,5.23
2023-01-10T02:12:01.297Z,5.22
2023-01-10T02:12:12.109Z,5.22
2023-01-10T02:12:22.945Z,5.22
2023-01-10T02:12:35.169Z,5.20
2023-01-10T02:12:45.920Z,5.22
2023-01-10T02:12:57.673Z,5.22
2023-01-10T02:13:08.445Z,5.22
2023-01-10T02:13:19.251Z,5.22
2023-01-10T02:13:30.974Z,5.22
2023-01-10T02:13:41.733Z,5.20
2023-01-10T02:13:52.493Z,5.20
2023-01-10T02:14:06.201Z,5.22
2023-01-10T02:14:16.960Z,5.20
2023-01-10T02:14:27.740Z,5.20
2023-01-10T02:14:38.541Z,5.20
2023-01-10T02:14:50.306Z,5.19
2023-01-10T02:15:02.054Z,5.20
2023-01-10T02:15:14.483Z,5.19
2023-01-10T02:15:25.319Z,5.20
2023-01-10T02:15:36.128Z,5.19
2023-01-10T02:15:47.907Z,5.20
2023-01-10T02:15:58.650Z,5.19
2023-01-10T02:16:09.714Z,5.19
2023-01-10T02:16:22.261Z,5.17
2023-01-10T02:16:33.052Z,5.19
2023-01-10T02:16:43.864Z,5.17
2023-01-10T02:16:55.606Z,5.17
2023-01-10T02:17:07.363Z,5.19
2023-01-10T02:17:19.074Z,5.17
2023-01-10T02:17:29.843Z,5.17
2023-01-10T02:17:40.634Z,5.17
2023-01-10T02:17:52.533Z,5.14
2023-01-10T02:18:04.292Z,5.14
2023-01-10T02:18:16.499Z,5.16
2023-01-10T02:18:28.224Z,5.17
2023-01-10T02:18:39.072Z,5.16
2023-01-10T02:18:49.844Z,5.14
2023-01-10T02:19:01.556Z,5.14
2023-01-10T02:19:12.323Z,5.14
2023-01-10T02:19:23.118Z,5.16
2023-01-10T02:19:33.889Z,5.14
2023-01-10T02:19:47.103Z,5.13
2023-01-10T02:19:57.875Z,5.13
2023-01-10T02:20:08.699Z,5.13
2023-01-10T02:20:21.143Z,5.13
2023-01-10T02:20:31.877Z,5.12
2023-01-10T02:20:44.144Z,5.13
2023-01-10T02:20:54.931Z,5.13
2023-01-10T02:21:05.724Z,5.12
2023-01-10T02:21:16.517Z,5.13
2023-01-10T02:21:28.783Z,5.13
2023-01-10T02:21:41.553Z,5.13
2023-01-10T02:21:52.284Z,5.12
2023-01-10T02:22:03.096Z,5.12
2023-01-10T02:22:13.826Z,5.12
2023-01-10T02:22:25.583Z,5.10
2023-01-10T02:22:38.043Z,5.10
2023-01-10T02:22:48.808Z,5.12
2023-01-10T02:22:59.585Z,5.10
2023-01-10T02:23:10.390Z,5.09
2023-01-10T02:23:23.607Z,5.12
2023-01-10T02:23:34.335Z,5.10
2023-01-10T02:23:45.074Z,5.10
2023-01-10T02:23:57.321Z,5.10
2023-01-10T02:24:09.052Z,5.09
2023-01-10T02:24:19.846Z,5.09
2023-01-10T02:24:31.574Z,5.10
2023-01-10T02:24:43.251Z,5.09
2023-01-10T02:24:54.034Z,5.10
2023-01-10T02:25:06.491Z,5.09
2023-01-10T02:25:17.295Z,5.10
2023-01-10T02:25:29.035Z,5.09
2023-01-10T02:25:41.293Z,5.10
2023-01-10T02:25:52.984Z,5.09
2023-01-10T02:26:05.495Z,5.09
2023-01-10T02:26:16.274Z,5.10
2023-01-10T02:26:27.020Z,5.12
2023-01-10T02:26:37.783Z,5.12
2023-01-10T02:26:48.552Z,5.10
2023-01-10T02:26:59.341Z,5.12
2023-01-10T02:27:10.085Z,5.12
2023-01-10T02:27:20.856Z,5.12
2023-01-10T02:27:31.660Z,5.12
2023-01-10T02:27:42.385Z,5.13
2023-01-10T02:27:54.839Z,5.13
2023-01-10T02:28:05.595Z,5.13
2023-01-10T02:28:19.623Z,5.13
2023-01-10T02:28:31.124Z,5.14
2023-01-10T02:28:41.938Z,5.14
2023-01-10T02:28:52.684Z,5.13
2023-01-10T02:29:03.424Z,5.14
2023-01-10T02:29:15.128Z,5.14
2023-01-10T02:29:25.878Z,5.14
2023-01-10T02:29:36.630Z,5.16
2023-01-10T02:29:48.392Z,5.16
2023-01-10T02:30:00.149Z,5.16
2023-01-10T02:30:12.597Z,5.14
2023-01-10T02:30:24.341Z,5.16
2023-01-10T02:30:35.086Z,5.16
2023-01-10T02:30:46.855Z,5.16
2023-01-10T02:30:58.594Z,5.17
2023-01-10T02:31:09.363Z,5.16
2023-01-10T02:31:21.041Z,5.14
2023-01-10T02:31:32.814Z,5.16
2023-01-10T02:31:43.575Z,5.17
2023-01-10T02:31:54.317Z,5.16
2023-01-10T02:32:06.515Z,5.17